Yellowstone Regional Airport
KCOD : now visible

Airfield :











YOU CAN JOIN US ON...

 
LOGIN :

Register | Disclaimer

   EN    FR    IT 

 









Legend :    VFR   Marginal VFR   IFR   Intensive IFR   Very Intensive IFR
Visi :
Ceiling :
>= 8 km
>= 3000ft
5 to 8 km
1000 to 3000 ft
1500m to 5 km
500 to 1000 ft
800 to 1500m
200 to 500 ft
< 800m
< 200 ft
Symbols :   Thunderstorms  Fog  Heavy snow  Heavy precipitations  Wind > 20 kt






- Airport Elevation : 5102 ft


KCOD - Yellowstone Regional

CURRENT METAR :
  • 061556Z AUTO 25021G31KT 10SM CLR 04/M06 A3015 RMK AO2 PK WND 23034/1511 SLP244 T00441061

EXPIRED METARs :
  • 061456Z AUTO 24024G31KT 10SM CLR 04/M06 A3015 RMK AO2 PK WND 24031/1456 SLP245 T00391061 55001
  • 061356Z AUTO 24014G21KT 10SM CLR 04/M06 A3015 RMK AO2 SLP237 T00391061

TAF KCOD
Valid from the 06 at 12:00 until the 07 at 12:00 UTC


061134Z 0612/0712 27009G20KT P6SM BKN200
FM061600 26008KT P6SM FEW200
FM070500 23009G20KT P6SM SCT200 AMD LTD TO CLD VIS AND WIND



MET'MAP, your aeronautical weather chart ! - Copyright ORBIFLY December 2007 - Disclaimer

ORBIFLY MET'MAP TEAM :

Programming & Development : Alexandra Zaïnal
Concept & original design : Baudouin d'Aumeries
Assistance for programming : Marc-Olivier Méhu
Technical & hardware support : Manuel Goepfert

Contact : metmap@orbifly.com




SOURCES & CREDITS :

   NOAA       Earth
Advisory